KGIF/GIF METAR and TAF weather

Enter ICAO airport designator
Station Type Date Time Source
KGIF METAR 2021/09/28 16:53 UTC NOAA

KGIF 281653Z AUTO 03009KT 10SM BKN060 29/14 A3007 RMK AO2 SLP180 T02940144


Station Type Date Time Source
KGIF Decoded METAR 2021/09/28 16:53 UTC NOAA

WINTER HAVENS GILBERT AIRPORT , FL, United States (KGIF) 28-04N 81-45W 43M
Sep 28, 2021 - 12:53 PM EDT / 2021.09.28 1653 UTC
Wind: from the NNE (030 degrees) at 10 MPH (9 KT):0
Visibility: 10 mile(s):0
Sky conditions: mostly cloudy
Temperature: 84.9 F (29.4 C)
Dew Point: 57.9 F (14.4 C)
Relative Humidity: 39%
Pressure (altimeter): 30.07 in. Hg (1018 hPa)
ob: KGIF 281653Z AUTO 03009KT 10SM BKN060 29/14 A3007 RMK AO2 SLP180 T02940144
cycle: 17

Station Type Date Time Source
KGIF TAF UTC NOAA

Error!

Example: see airport list